createdAt,value
2023-01-10T00:02:15.351Z,10.38
2023-01-10T00:04:48.120Z,11.13
2023-01-10T00:07:18.192Z,11.50
2023-01-10T00:09:48.245Z,6.95
2023-01-10T00:12:30.723Z,12.07
2023-01-10T00:15:01.034Z,11.40
2023-01-10T00:17:31.123Z,9.90
2023-01-10T00:20:03.860Z,10.73
2023-01-10T00:22:33.901Z,9.05
2023-01-10T00:25:03.948Z,11.25
2023-01-10T00:27:34.878Z,14.15
2023-01-10T00:30:08.860Z,13.27
2023-01-10T00:32:38.898Z,10.05
2023-01-10T00:35:12.538Z,12.65
2023-01-10T00:37:44.354Z,11.50
2023-01-10T00:40:15.633Z,12.20
2023-01-10T00:42:58.028Z,11.02
2023-01-10T00:45:27.935Z,10.48
2023-01-10T00:47:57.987Z,12.13
2023-01-10T00:50:30.682Z,10.02
2023-01-10T00:53:00.762Z,11.77
2023-01-10T00:55:30.775Z,9.48
2023-01-10T00:58:00.807Z,9.52
2023-01-10T01:00:30.930Z,10.73
2023-01-10T01:03:01.268Z,12.50
2023-01-10T01:05:34.040Z,10.80
2023-01-10T01:08:04.221Z,8.50
2023-01-10T01:10:34.260Z,11.73
2023-01-10T01:13:10.997Z,10.25
2023-01-10T01:15:41.246Z,11.95
2023-01-10T01:18:11.713Z,13.82
2023-01-10T01:20:46.138Z,10.10
2023-01-10T01:23:16.772Z,8.85
2023-01-10T01:25:46.797Z,9.02
2023-01-10T01:28:16.923Z,13.02
2023-01-10T01:30:47.034Z,14.13
2023-01-10T01:33:17.308Z,13.15
2023-01-10T01:35:51.552Z,11.02
2023-01-10T01:38:21.868Z,13.10
2023-01-10T01:40:51.921Z,13.07
2023-01-10T01:43:27.703Z,9.35
2023-01-10T01:45:58.387Z,12.77
2023-01-10T01:48:34.142Z,13.00
2023-01-10T01:51:11.068Z,13.98
2023-01-10T01:53:44.227Z,10.63
2023-01-10T01:56:18.473Z,14.05
2023-01-10T01:58:52.226Z,14.15
2023-01-10T02:01:22.734Z,14.25
2023-01-10T02:03:56.950Z,15.70
2023-01-10T02:06:29.729Z,13.02
2023-01-10T02:09:03.963Z,12.38
2023-01-10T02:11:34.140Z,11.25
2023-01-10T02:14:05.365Z,11.75
2023-01-10T02:16:35.520Z,8.63
2023-01-10T02:19:06.035Z,8.50
2023-01-10T02:22:11.580Z,15.02
2023-01-10T02:25:19.850Z,8.55
2023-01-10T02:28:06.491Z,10.53
2023-01-10T02:30:43.445Z,7.93
2023-01-10T02:33:22.917Z,10.63
2023-01-10T02:36:03.679Z,8.52
2023-01-10T02:38:43.783Z,9.88
2023-01-10T02:41:19.476Z,11.13
2023-01-10T02:43:53.387Z,9.63
2023-01-10T02:46:27.722Z,9.05
2023-01-10T02:49:00.490Z,7.82
2023-01-10T02:51:33.660Z,10.27
2023-01-10T02:54:08.337Z,7.22
2023-01-10T02:56:56.432Z,10.25
2023-01-10T02:59:58.816Z,9.50
2023-01-10T03:02:38.887Z,8.02
2023-01-10T03:05:20.213Z,7.45
2023-01-10T03:07:56.494Z,10.00
2023-01-10T03:10:31.700Z,8.73
2023-01-10T03:13:06.945Z,9.65
2023-01-10T03:15:39.955Z,9.43
2023-01-10T03:18:14.121Z,9.02
2023-01-10T03:20:48.790Z,9.90
2023-01-10T03:23:19.151Z,9.18
2023-01-10T03:25:51.790Z,7.82
2023-01-10T03:28:26.844Z,14.13
2023-01-10T03:31:00.922Z,9.23
2023-01-10T03:33:32.648Z,8.35
2023-01-10T03:36:16.734Z,8.20
2023-01-10T03:38:49.968Z,9.25
2023-01-10T03:41:24.607Z,8.68
2023-01-10T03:44:11.043Z,8.40
2023-01-10T03:46:44.801Z,9.63
2023-01-10T03:49:16.721Z,9.50
2023-01-10T03:51:49.766Z,9.73
2023-01-10T03:54:20.380Z,10.10
2023-01-10T03:56:52.653Z,10.20
2023-01-10T03:59:24.443Z,10.82
2023-01-10T04:01:55.001Z,10.88
2023-01-10T04:04:25.179Z,9.45
2023-01-10T04:06:57.762Z,9.90
2023-01-10T04:09:27.739Z,12.73
2023-01-10T04:11:57.701Z,10.10
2023-01-10T04:14:27.757Z,14.23
2023-01-10T04:16:57.760Z,12.18
2023-01-10T04:19:27.879Z,11.52
2023-01-10T04:22:00.401Z,10.38
2023-01-10T04:24:30.695Z,10.90
2023-01-10T04:27:00.757Z,9.85
2023-01-10T04:29:30.852Z,12.52
2023-01-10T04:32:01.185Z,9.32
2023-01-10T04:34:32.391Z,9.60
2023-01-10T04:37:05.041Z,13.02
2023-01-10T04:39:35.147Z,8.23
2023-01-10T04:42:05.162Z,8.95
2023-01-10T04:44:35.258Z,12.35
2023-01-10T04:47:05.279Z,8.52
2023-01-10T04:49:35.352Z,10.45
2023-01-10T04:52:07.931Z,8.60
2023-01-10T04:54:38.256Z,11.30
2023-01-10T04:57:08.465Z,12.75
2023-01-10T04:59:38.490Z,8.30
2023-01-10T05:02:08.745Z,11.32
2023-01-10T05:04:39.034Z,7.43
2023-01-10T05:07:11.832Z,9.32
2023-01-10T05:09:42.852Z,7.18
2023-01-10T05:12:12.937Z,9.65
2023-01-10T05:14:42.918Z,9.10
2023-01-10T05:17:12.956Z,12.30
2023-01-10T05:19:42.944Z,10.02
2023-01-10T05:22:15.633Z,8.10
2023-01-10T05:24:45.585Z,8.05
2023-01-10T05:27:15.539Z,7.65
2023-01-10T05:29:45.717Z,10.45
2023-01-10T05:32:15.854Z,7.47
2023-01-10T05:34:45.947Z,8.57
2023-01-10T05:37:18.525Z,6.80
2023-01-10T05:39:48.649Z,6.15
2023-01-10T05:42:18.587Z,10.15
2023-01-10T05:44:48.677Z,8.38
2023-01-10T05:47:18.665Z,6.55
2023-01-10T05:49:48.662Z,7.47
2023-01-10T05:52:21.249Z,7.57
2023-01-10T05:54:51.228Z,8.50
2023-01-10T05:57:22.099Z,5.93
2023-01-10T05:59:52.063Z,7.90
2023-01-10T06:02:22.896Z,6.78
2023-01-10T06:04:55.280Z,8.75
2023-01-10T06:07:27.899Z,9.13
2023-01-10T06:09:57.923Z,6.22
2023-01-10T06:12:27.825Z,6.65
2023-01-10T06:14:57.744Z,7.80
2023-01-10T06:17:29.501Z,5.80
2023-01-10T06:19:59.489Z,6.13
2023-01-10T06:22:32.060Z,6.28
2023-01-10T06:25:02.715Z,8.77
2023-01-10T06:27:32.757Z,6.97
2023-01-10T06:30:02.967Z,5.82
2023-01-10T06:32:33.034Z,9.75
2023-01-10T06:35:02.985Z,7.53
2023-01-10T06:37:35.589Z,8.98
2023-01-10T06:40:05.659Z,10.55
2023-01-10T06:42:35.662Z,5.72
2023-01-10T06:45:06.160Z,7.57
2023-01-10T06:47:36.184Z,9.55
2023-01-10T06:50:06.837Z,6.60
2023-01-10T06:52:39.545Z,5.43
2023-01-10T06:55:10.676Z,6.20
2023-01-10T06:57:41.030Z,11.85
2023-01-10T07:00:13.568Z,8.48
2023-01-10T07:02:43.629Z,5.72
2023-01-10T07:05:13.701Z,4.90
2023-01-10T07:07:46.290Z,5.88
2023-01-10T07:10:16.364Z,5.30
2023-01-10T07:12:46.404Z,6.80
2023-01-10T07:15:16.341Z,7.45
2023-01-10T07:17:46.421Z,6.10
2023-01-10T07:20:16.651Z,8.95
2023-01-10T07:22:56.315Z,8.43
2023-01-10T07:25:26.445Z,7.35
2023-01-10T07:27:59.010Z,7.25
2023-01-10T07:30:29.163Z,8.23
2023-01-10T07:33:01.351Z,7.18
2023-01-10T07:35:31.365Z,9.48
2023-01-10T07:38:04.323Z,9.48
2023-01-10T07:40:34.504Z,5.85
2023-01-10T07:43:05.214Z,9.02
2023-01-10T07:45:35.200Z,9.05
2023-01-10T07:48:06.234Z,11.18
2023-01-10T07:50:37.508Z,10.40
2023-01-10T07:53:10.588Z,10.68
2023-01-10T07:55:41.859Z,13.25
2023-01-10T07:58:11.847Z,10.43
2023-01-10T08:00:41.825Z,11.40
2023-01-10T08:03:13.595Z,9.02
2023-01-10T08:05:43.643Z,8.77
2023-01-10T08:08:17.522Z,12.60
2023-01-10T08:10:47.617Z,10.00
2023-01-10T08:13:19.152Z,12.60
2023-01-10T08:15:50.483Z,8.85
2023-01-10T08:18:20.883Z,11.45
2023-01-10T08:20:51.864Z,12.80
2023-01-10T08:23:24.521Z,10.05
2023-01-10T08:25:55.298Z,7.90
2023-01-10T08:28:25.300Z,11.10
2023-01-10T08:30:56.225Z,16.42
2023-01-10T08:33:27.558Z,10.98
2023-01-10T08:35:57.621Z,10.63
2023-01-10T08:38:31.154Z,10.93
2023-01-10T08:41:01.419Z,12.02
2023-01-10T08:43:34.388Z,9.32
2023-01-10T08:46:04.464Z,9.75
2023-01-10T08:48:34.515Z,12.32
2023-01-10T08:51:09.427Z,9.30
2023-01-10T08:53:42.841Z,11.25
2023-01-10T08:56:13.212Z,10.68
2023-01-10T08:58:43.243Z,11.18
2023-01-10T09:01:14.929Z,9.85
2023-01-10T09:03:45.115Z,8.23
2023-01-10T09:06:15.042Z,11.48
2023-01-10T09:08:47.669Z,9.13
2023-01-10T09:11:17.751Z,13.88
2023-01-10T09:13:47.778Z,10.55
2023-01-10T09:16:17.870Z,11.10
2023-01-10T09:18:48.311Z,10.52
2023-01-10T09:21:18.606Z,10.32
2023-01-10T09:23:51.235Z,12.70
2023-01-10T09:26:21.251Z,11.88
2023-01-10T09:28:51.281Z,12.23
2023-01-10T09:31:21.295Z,12.40
2023-01-10T09:33:51.315Z,10.73
2023-01-10T09:36:21.355Z,11.40
2023-01-10T09:38:53.952Z,10.35
2023-01-10T09:41:50.266Z,10.90
2023-01-10T09:44:23.519Z,14.68
2023-01-10T09:47:02.203Z,10.45
2023-01-10T09:49:45.669Z,10.88
2023-01-10T09:52:23.010Z,11.57
2023-01-10T09:54:57.671Z,10.25
2023-01-10T09:57:27.833Z,10.38
2023-01-10T09:59:57.918Z,11.45
2023-01-10T10:02:32.567Z,7.68
2023-01-10T10:05:11.497Z,12.68
2023-01-10T10:07:41.579Z,12.20
2023-01-10T10:10:21.543Z,10.80
2023-01-10T10:12:58.527Z,12.90
2023-01-10T10:15:37.490Z,18.55
2023-01-10T10:18:16.817Z,11.05
2023-01-10T10:23:29.902Z,8.48
2023-01-10T10:26:07.682Z,9.80
2023-01-10T10:29:07.465Z,12.30
2023-01-10T10:31:45.237Z,11.07
2023-01-10T10:34:19.391Z,9.55
2023-01-10T10:36:53.367Z,10.32
2023-01-10T10:39:26.861Z,7.45
2023-01-10T10:42:00.128Z,10.55
2023-01-10T10:44:43.119Z,9.88
2023-01-10T10:47:17.875Z,9.95
2023-01-10T10:49:53.093Z,10.45
2023-01-10T10:52:27.334Z,11.55
2023-01-10T10:54:58.039Z,11.88
2023-01-10T10:57:32.167Z,11.93
2023-01-10T11:00:06.004Z,13.32
2023-01-10T11:02:43.519Z,13.50
2023-01-10T11:05:20.055Z,11.57
2023-01-10T11:07:50.185Z,10.90
2023-01-10T11:10:39.404Z,9.13
2023-01-10T11:13:30.690Z,15.15
2023-01-10T11:16:01.118Z,12.98
2023-01-10T11:18:33.009Z,10.40
2023-01-10T11:21:06.530Z,8.38
2023-01-10T11:23:47.219Z,9.27
2023-01-10T11:26:27.673Z,9.05
2023-01-10T11:29:09.616Z,14.25
2023-01-10T11:31:40.528Z,12.52
2023-01-10T11:34:22.548Z,12.68
2023-01-10T11:36:58.006Z,15.68
2023-01-10T11:39:28.724Z,12.48
2023-01-10T11:42:00.136Z,10.00
2023-01-10T11:44:33.025Z,11.93
2023-01-10T11:47:07.740Z,15.93
2023-01-10T11:49:40.168Z,14.88
2023-01-10T11:52:18.905Z,11.48
2023-01-10T11:54:48.940Z,16.10
2023-01-10T11:57:21.281Z,10.27
2023-01-10T11:59:59.400Z,14.57
2023-01-10T12:02:31.333Z,9.27
2023-01-10T12:05:03.872Z,13.95
2023-01-10T12:07:34.059Z,10.00
2023-01-10T12:10:06.332Z,12.38
2023-01-10T12:12:38.971Z,11.15
2023-01-10T12:15:27.194Z,7.78
2023-01-10T12:17:59.022Z,15.43
2023-01-10T12:20:29.757Z,12.30
2023-01-10T12:23:02.991Z,13.70
2023-01-10T12:25:37.063Z,11.43
2023-01-10T12:28:07.884Z,12.88
2023-01-10T12:30:44.607Z,11.90
2023-01-10T12:33:16.535Z,11.40
2023-01-10T12:35:49.441Z,9.30
2023-01-10T12:38:26.223Z,12.45
2023-01-10T12:41:00.082Z,10.70
2023-01-10T12:43:46.265Z,11.05
2023-01-10T12:46:52.907Z,13.27
2023-01-10T12:49:21.457Z,14.50
2023-01-10T12:51:52.835Z,9.57
2023-01-10T12:54:25.191Z,13.00
2023-01-10T12:56:55.837Z,15.88
2023-01-10T12:59:37.100Z,9.68
2023-01-10T13:02:17.816Z,9.68
2023-01-10T13:04:51.696Z,9.07
2023-01-10T13:07:21.895Z,8.65
2023-01-10T13:09:52.459Z,7.20
2023-01-10T13:12:25.851Z,8.90
2023-01-10T13:14:59.676Z,11.63
2023-01-10T13:17:42.163Z,8.00
2023-01-10T13:20:37.234Z,8.38
2023-01-10T13:23:18.550Z,5.57
2023-01-10T13:25:58.173Z,6.85
2023-01-10T13:28:29.588Z,5.22
2023-01-10T13:31:01.929Z,5.47
2023-01-10T13:33:40.344Z,6.93
2023-01-10T13:36:13.625Z,7.47
2023-01-10T13:38:52.414Z,10.38
2023-01-10T13:41:35.517Z,6.90
2023-01-10T13:44:11.804Z,6.63
2023-01-10T13:46:52.936Z,8.00
2023-01-10T13:49:44.471Z,7.82
2023-01-10T13:52:41.950Z,8.02
2023-01-10T13:55:34.509Z,7.03
2023-01-10T13:58:06.088Z,6.65
2023-01-10T14:01:03.806Z,5.80
2023-01-10T14:03:53.270Z,4.90
2023-01-10T14:09:38.658Z,9.52
2023-01-10T14:12:11.981Z,6.43
2023-01-10T14:14:43.298Z,5.50
2023-01-10T14:17:16.911Z,6.13
2023-01-10T14:19:48.962Z,7.63
2023-01-10T14:22:31.151Z,7.72
2023-01-10T14:25:06.015Z,7.30
2023-01-10T14:27:46.618Z,7.20
2023-01-10T14:30:22.206Z,7.60
2023-01-10T14:32:56.814Z,9.25
2023-01-10T14:35:33.130Z,10.77
2023-01-10T14:38:04.727Z,5.30
2023-01-10T14:40:43.306Z,7.22
2023-01-10T14:43:16.530Z,5.25
2023-01-10T14:45:53.389Z,8.55
2023-01-10T14:48:29.560Z,7.68
2023-01-10T14:51:21.877Z,7.93
2023-01-10T14:53:59.039Z,6.95
2023-01-10T14:56:33.231Z,7.03
2023-01-10T14:59:03.228Z,4.30
2023-01-10T15:01:34.046Z,4.70
2023-01-10T15:04:04.082Z,4.43
2023-01-10T15:06:56.229Z,4.00
2023-01-10T15:09:26.596Z,6.82
2023-01-10T15:12:01.555Z,6.50
2023-01-10T15:14:32.560Z,9.18
2023-01-10T15:17:06.442Z,6.25
2023-01-10T15:19:38.130Z,13.88
2023-01-10T15:22:21.192Z,59.88
2023-01-10T15:25:01.570Z,24.15
2023-01-10T15:27:35.431Z,17.17
2023-01-10T15:30:11.118Z,7.47
2023-01-10T15:32:42.741Z,6.38
2023-01-10T15:35:20.265Z,17.35
2023-01-10T15:37:53.918Z,28.60
2023-01-10T15:40:25.849Z,8.00
2023-01-10T15:43:13.750Z,5.88
2023-01-10T15:45:44.983Z,15.75
2023-01-10T15:48:33.867Z,100.40
2023-01-10T15:51:06.960Z,51.78
2023-01-10T15:53:55.686Z,11.50
2023-01-10T15:56:28.977Z,8.52
2023-01-10T15:59:03.055Z,7.03
2023-01-10T16:01:34.126Z,9.95
2023-01-10T16:04:05.518Z,14.82
2023-01-10T16:06:37.453Z,10.00
2023-01-10T16:09:10.530Z,4.63
2023-01-10T16:11:54.737Z,14.00
2023-01-10T16:14:27.702Z,6.70
2023-01-10T16:16:57.681Z,6.00
2023-01-10T16:19:27.686Z,8.63
2023-01-10T16:22:00.568Z,8.93
2023-01-10T16:24:32.863Z,11.00
2023-01-10T16:27:05.791Z,10.30
2023-01-10T16:29:38.468Z,11.95
2023-01-10T16:32:15.773Z,8.98
2023-01-10T16:34:45.795Z,8.80
2023-01-10T16:37:15.815Z,6.80
2023-01-10T16:39:45.826Z,5.78
2023-01-10T16:42:28.191Z,7.32
2023-01-10T16:45:00.863Z,5.30
2023-01-10T16:47:30.904Z,4.53
2023-01-10T16:50:00.925Z,11.45
2023-01-10T16:52:30.832Z,11.40
2023-01-10T16:55:02.101Z,9.57
2023-01-10T16:57:32.113Z,16.15
2023-01-10T17:00:05.026Z,9.77
2023-01-10T17:02:35.036Z,10.95
2023-01-10T17:05:05.318Z,8.45
2023-01-10T17:07:35.301Z,11.20
2023-01-10T17:10:05.525Z,13.38
2023-01-10T17:12:37.814Z,8.75
2023-01-10T17:15:14.367Z,7.03
2023-01-10T17:17:45.749Z,11.02
2023-01-10T17:20:17.242Z,8.30
2023-01-10T17:22:47.358Z,9.50
2023-01-10T17:25:18.803Z,12.20
2023-01-10T17:27:48.809Z,10.57
2023-01-10T17:30:21.738Z,8.27
2023-01-10T17:32:51.761Z,11.05
2023-01-10T17:35:22.530Z,15.23
2023-01-10T17:37:52.780Z,12.48
2023-01-10T17:40:23.016Z,8.77
2023-01-10T17:42:53.005Z,11.55
2023-01-10T17:45:25.601Z,11.40
2023-01-10T17:47:55.632Z,11.95
2023-01-10T17:50:25.618Z,10.95
2023-01-10T17:52:56.414Z,7.20
2023-01-10T17:55:26.537Z,5.75
2023-01-10T17:57:57.263Z,4.32
2023-01-10T18:00:30.472Z,6.38
2023-01-10T18:03:00.605Z,6.65
2023-01-10T18:05:32.438Z,8.52
2023-01-10T18:08:02.687Z,7.05
2023-01-10T18:10:33.135Z,6.05
2023-01-10T18:13:03.691Z,7.38
2023-01-10T18:15:36.411Z,11.93
2023-01-10T18:18:06.470Z,7.93
2023-01-10T18:20:36.398Z,11.95
2023-01-10T18:23:18.760Z,10.27
2023-01-10T18:25:54.055Z,8.05
2023-01-10T18:28:39.485Z,8.43
2023-01-10T18:31:16.242Z,14.85
2023-01-10T18:33:46.796Z,6.93
2023-01-10T18:36:18.353Z,6.80
2023-01-10T18:38:48.702Z,8.88
2023-01-10T18:41:19.269Z,9.00
2023-01-10T18:43:49.667Z,11.55
2023-01-10T18:46:25.453Z,15.00
2023-01-10T18:48:56.287Z,7.55
2023-01-10T18:51:26.275Z,11.25
2023-01-10T18:53:56.343Z,42.95
2023-01-10T18:56:26.409Z,24.90
2023-01-10T18:58:58.937Z,10.77
2023-01-10T19:01:34.640Z,24.52
2023-01-10T19:04:05.096Z,64.40
2023-01-10T19:06:35.055Z,50.45
2023-01-10T19:09:05.015Z,38.20
2023-01-10T19:11:34.965Z,35.35
2023-01-10T19:14:04.979Z,52.90
2023-01-10T19:16:37.681Z,49.83
2023-01-10T19:19:09.927Z,28.75
2023-01-10T19:21:41.344Z,37.75
2023-01-10T19:24:23.111Z,31.02
2023-01-10T19:26:53.228Z,14.75
2023-01-10T19:29:23.496Z,11.32
2023-01-10T19:31:56.154Z,14.90
2023-01-10T19:34:26.297Z,10.88
2023-01-10T19:36:56.417Z,9.93
2023-01-10T19:39:26.599Z,14.80
2023-01-10T19:41:56.589Z,14.32
2023-01-10T19:44:26.814Z,9.70
2023-01-10T19:46:59.381Z,11.35
2023-01-10T19:49:34.740Z,9.57
2023-01-10T19:52:05.365Z,8.73
2023-01-10T19:54:36.701Z,8.38
2023-01-10T19:57:08.333Z,7.60
2023-01-10T19:59:38.568Z,10.40
2023-01-10T20:02:14.304Z,9.60
2023-01-10T20:04:45.506Z,6.03
2023-01-10T20:07:17.896Z,11.98
2023-01-10T20:09:48.827Z,7.65
2023-01-10T20:12:18.890Z,8.45
2023-01-10T20:14:48.835Z,5.10
2023-01-10T20:17:23.950Z,5.60
2023-01-10T20:19:55.413Z,9.75
2023-01-10T20:22:25.390Z,7.90
2023-01-10T20:24:57.410Z,8.70
2023-01-10T20:27:27.469Z,8.68
2023-01-10T20:29:57.534Z,7.72
2023-01-10T20:32:30.186Z,10.35
2023-01-10T20:35:00.373Z,13.18
2023-01-10T20:37:30.332Z,58.63
2023-01-10T20:40:00.395Z,67.57
2023-01-10T20:42:30.356Z,51.40
2023-01-10T20:45:00.333Z,55.15
2023-01-10T20:47:33.529Z,43.17
2023-01-10T20:50:03.537Z,20.23
2023-01-10T20:52:33.451Z,18.83
2023-01-10T20:55:07.221Z,9.25
2023-01-10T20:57:37.338Z,10.63
2023-01-10T21:00:08.348Z,12.77
2023-01-10T21:02:41.239Z,9.57
2023-01-10T21:05:12.353Z,7.75
2023-01-10T21:07:42.581Z,5.80
2023-01-10T21:10:14.022Z,6.40
2023-01-10T21:12:44.598Z,7.82
2023-01-10T21:15:15.013Z,7.53
2023-01-10T21:17:47.607Z,10.23
2023-01-10T21:20:20.095Z,10.10
2023-01-10T21:22:50.081Z,9.48
2023-01-10T21:25:20.420Z,7.82
2023-01-10T21:27:50.396Z,9.95
2023-01-10T21:30:21.707Z,9.38
2023-01-10T21:32:54.345Z,7.70
2023-01-10T21:35:24.477Z,4.93
2023-01-10T21:37:56.385Z,4.72
2023-01-10T21:40:26.420Z,6.80
2023-01-10T21:42:57.119Z,4.72
2023-01-10T21:45:28.681Z,7.20
2023-01-10T21:48:01.296Z,6.50
2023-01-10T21:50:33.859Z,8.82
2023-01-10T21:53:03.967Z,7.63
2023-01-10T21:55:33.969Z,10.23
2023-01-10T21:58:03.997Z,16.27
2023-01-10T22:00:33.996Z,7.38
2023-01-10T22:03:06.553Z,8.23
2023-01-10T22:05:36.577Z,9.70
2023-01-10T22:08:06.724Z,16.90
2023-01-10T22:10:36.757Z,19.17
2023-01-10T22:13:06.779Z,10.93
2023-01-10T22:15:38.033Z,21.75
2023-01-10T22:18:11.211Z,27.33
2023-01-10T22:20:41.698Z,8.93
2023-01-10T22:23:11.618Z,5.85
2023-01-10T22:25:41.618Z,15.55
2023-01-10T22:28:11.582Z,6.47
2023-01-10T22:30:41.550Z,6.72
2023-01-10T22:33:14.080Z,10.32
2023-01-10T22:35:44.062Z,21.55
2023-01-10T22:38:14.043Z,24.05
2023-01-10T22:40:44.067Z,18.20
2023-01-10T22:43:14.092Z,12.43
2023-01-10T22:45:44.544Z,23.63
2023-01-10T22:48:17.187Z,19.23
2023-01-10T22:50:51.541Z,23.48
2023-01-10T22:53:21.551Z,22.48
2023-01-10T22:55:51.542Z,17.67
2023-01-10T22:58:21.466Z,21.38
2023-01-10T23:00:51.669Z,10.80
2023-01-10T23:03:24.656Z,12.80
2023-01-10T23:05:57.163Z,13.02
2023-01-10T23:08:27.905Z,7.40
2023-01-10T23:10:57.950Z,8.85
2023-01-10T23:13:28.615Z,11.32
2023-01-10T23:15:59.713Z,10.15
2023-01-10T23:18:32.540Z,14.80
2023-01-10T23:21:02.689Z,11.50
2023-01-10T23:23:32.965Z,7.20
2023-01-10T23:26:07.055Z,11.70
2023-01-10T23:28:38.295Z,6.32
2023-01-10T23:31:09.890Z,8.15
2023-01-10T23:33:42.494Z,24.30
2023-01-10T23:36:13.524Z,20.17
2023-01-10T23:38:43.868Z,21.45
2023-01-10T23:41:14.803Z,24.42
2023-01-10T23:43:45.355Z,28.85
2023-01-10T23:46:15.437Z,10.65
2023-01-10T23:48:48.567Z,8.32
2023-01-10T23:51:19.478Z,11.02
2023-01-10T23:53:49.669Z,14.23
2023-01-10T23:56:19.593Z,8.40
2023-01-10T23:58:54.088Z,10.82
